TimePST,TemperatureF,Dew PointF,Humidity,Sea Level PressureIn,VisibilityMPH,Wind Direction,Wind SpeedMPH,Gust SpeedMPH,PrecipitationIn,Events,Conditions,WindDirDegrees,DateUTC
12:10 AM,55.4,50.0,82,30.12,10.0,Calm,Calm,-,N/A,,Overcast,0,2013-03-03 08:10:00
12:30 AM,55.4,50.0,82,30.12,10.0,South,3.5,-,N/A,,Overcast,190,2013-03-03 08:30:00
12:50 AM,55.4,50.0,82,30.12,10.0,Calm,Calm,-,N/A,,Overcast,0,2013-03-03 08:50:00
1:10 AM,55.4,50.0,82,30.11,10.0,Calm,Calm,-,N/A,,Overcast,0,2013-03-03 09:10:00
1:30 AM,55.4,50.0,82,30.11,10.0,Calm,Calm,-,N/A,,Overcast,0,2013-03-03 09:30:00
1:50 AM,55.4,50.0,82,30.11,10.0,SE,3.5,-,N/A,,Overcast,130,2013-03-03 09:50:00
2:10 AM,55.4,50.0,82,30.11,10.0,Calm,Calm,-,N/A,,Overcast,0,2013-03-03 10:10:00
2:30 AM,55.4,50.0,82,30.11,10.0,WNW,4.6,-,N/A,,Overcast,300,2013-03-03 10:30:00
2:50 AM,53.6,48.2,82,30.10,10.0,NW,4.6,-,N/A,,Overcast,310,2013-03-03 10:50:00
3:10 AM,53.6,48.2,82,30.08,10.0,Calm,Calm,-,N/A,,Overcast,0,2013-03-03 11:10:00
3:30 AM,53.6,48.2,82,30.09,10.0,NNW,8.1,-,N/A,,Overcast,340,2013-03-03 11:30:00
3:50 AM,53.6,48.2,82,30.09,10.0,NNW,8.1,-,N/A,,Overcast,330,2013-03-03 11:50:00
4:10 AM,53.6,48.2,82,30.09,10.0,NNW,4.6,-,N/A,,Overcast,330,2013-03-03 12:10:00
4:50 AM,53.6,48.2,82,30.10,10.0,NW,5.8,-,N/A,,Overcast,310,2013-03-03 12:50:00
5:10 AM,53.6,48.2,82,30.10,10.0,West,3.5,-,N/A,,Overcast,260,2013-03-03 13:10:00
5:30 AM,53.6,48.2,82,30.10,10.0,Calm,Calm,-,N/A,,Overcast,0,2013-03-03 13:30:00
5:50 AM,53.6,48.2,82,30.09,10.0,Calm,Calm,-,N/A,,Overcast,0,2013-03-03 13:50:00
6:10 AM,53.6,48.2,82,30.10,10.0,Calm,Calm,-,N/A,,Overcast,0,2013-03-03 14:10:00
6:30 AM,53.6,46.4,77,30.10,10.0,NW,4.6,-,N/A,,Overcast,310,2013-03-03 14:30:00
6:47 AM,53.6,46.4,77,30.10,10.0,WNW,5.8,-,N/A,,Overcast,300,2013-03-03 14:47:00
7:47 AM,53.6,48.2,82,30.12,10.0,Variable,3.5,-,N/A,,Overcast,0,2013-03-03 15:47:00
8:47 AM,55.4,46.4,72,30.12,10.0,WSW,6.9,-,N/A,,Mostly Cloudy,250,2013-03-03 16:47:00
9:55 AM,55.4,46.4,72,30.12,10.0,WSW,3.5,-,N/A,,Mostly Cloudy,250,2013-03-03 17:55:00
10:52 AM,57.2,48.2,72,30.11,10.0,NE,5.8,-,N/A,,Mostly Cloudy,50,2013-03-03 18:52:00
11:48 AM,59.0,50.0,72,30.11,10.0,ENE,9.2,-,N/A,,Mostly Cloudy,60,2013-03-03 19:48:00
1:47 PM,62.6,44.6,52,30.07,10.0,WSW,9.2,-,N/A,,Scattered Clouds,250,2013-03-03 21:47:00
2:47 PM,62.6,44.6,52,30.07,10.0,West,13.8,-,N/A,,Scattered Clouds,260,2013-03-03 22:47:00
4:47 PM,53.6,46.4,77,30.07,10.0,West,15.0,24.2,N/A,,Scattered Clouds,280,2013-03-04 00:47:00
5:47 PM,50.0,44.6,82,30.08,10.0,WNW,15.0,19.6,N/A,,Scattered Clouds,290,2013-03-04 01:47:00
6:47 PM,50.0,44.6,82,30.09,10.0,WNW,10.4,-,N/A,,Scattered Clouds,290,2013-03-04 02:47:00
7:47 PM,50.0,44.6,82,30.10,10.0,WNW,11.5,-,N/A,,Mostly Cloudy,290,2013-03-04 03:47:00
8:47 PM,48.2,44.6,87,30.12,10.0,West,11.5,17.3,N/A,,Scattered Clouds,270,2013-03-04 04:47:00
9:10 PM,48.2,44.6,87,30.12,10.0,West,11.5,-,N/A,,Mostly Cloudy,270,2013-03-04 05:10:00
9:30 PM,48.2,44.6,87,30.12,10.0,WNW,12.7,-,N/A,,Overcast,290,2013-03-04 05:30:00
9:50 PM,48.2,44.6,87,30.12,10.0,West,13.8,-,N/A,,Scattered Clouds,280,2013-03-04 05:50:00
10:10 PM,48.2,44.6,87,30.13,10.0,West,11.5,-,N/A,,Scattered Clouds,280,2013-03-04 06:10:00
10:30 PM,50.0,44.6,82,30.13,10.0,West,6.9,-,N/A,,Overcast,280,2013-03-04 06:30:00
10:50 PM,48.2,44.6,87,30.13,10.0,West,6.9,-,N/A,,Overcast,260,2013-03-04 06:50:00
11:10 PM,50.0,44.6,82,30.13,10.0,West,5.8,-,N/A,,Overcast,260,2013-03-04 07:10:00
11:50 PM,50.0,44.6,82,30.12,10.0,WNW,4.6,-,N/A,,Overcast,290,2013-03-04 07:50:00